sensor_id;sensor_type;location;lat;lon;timestamp;pressure;altitude;pressure_sealevel;temperature;humidity
6389;BME280;3227;42.654;23.360;2023-05-21T00:01:22;94305.38;;;15.93;92.40
6389;BME280;3227;42.654;23.360;2023-05-21T00:03:51;94313.94;;;15.95;92.96
6389;BME280;3227;42.654;23.360;2023-05-21T00:06:18;94310.38;;;15.99;92.54
6389;BME280;3227;42.654;23.360;2023-05-21T00:08:45;94304.31;;;16.01;92.48
6389;BME280;3227;42.654;23.360;2023-05-21T00:11:11;94274.59;;;15.84;92.69
6389;BME280;3227;42.654;23.360;2023-05-21T00:13:38;94304.34;;;15.99;92.60
6389;BME280;3227;42.654;23.360;2023-05-21T00:16:06;94294.19;;;15.93;92.93
6389;BME280;3227;42.654;23.360;2023-05-21T00:18:32;94289.94;;;15.90;93.29
6389;BME280;3227;42.654;23.360;2023-05-21T00:21:01;94293.53;;;15.83;93.61
6389;BME280;3227;42.654;23.360;2023-05-21T00:23:28;94284.16;;;15.81;93.58
6389;BME280;3227;42.654;23.360;2023-05-21T00:25:56;94284.94;;;15.83;94.25
6389;BME280;3227;42.654;23.360;2023-05-21T00:28:23;94285.97;;;15.77;94.31
6389;BME280;3227;42.654;23.360;2023-05-21T00:30:50;94288.59;;;15.74;94.24
6389;BME280;3227;42.654;23.360;2023-05-21T00:33:17;94282.75;;;15.66;95.12
6389;BME280;3227;42.654;23.360;2023-05-21T00:35:46;94291.34;;;15.68;95.08
6389;BME280;3227;42.654;23.360;2023-05-21T00:38:14;94281.81;;;15.70;95.47
6389;BME280;3227;42.654;23.360;2023-05-21T00:40:42;94248.78;;;15.46;95.66
6389;BME280;3227;42.654;23.360;2023-05-21T00:43:09;94266.56;;;15.59;95.43
6389;BME280;3227;42.654;23.360;2023-05-21T00:45:35;94258.97;;;15.52;95.65
6389;BME280;3227;42.654;23.360;2023-05-21T00:48:03;94277.72;;;15.62;95.98
6389;BME280;3227;42.654;23.360;2023-05-21T00:50:31;94241.25;;;15.37;95.90
6389;BME280;3227;42.654;23.360;2023-05-21T00:52:58;94284.59;;;15.63;95.84
6389;BME280;3227;42.654;23.360;2023-05-21T00:55:26;94263.25;;;15.53;95.90
6389;BME280;3227;42.654;23.360;2023-05-21T00:57:53;94274.22;;;15.64;95.87
6389;BME280;3227;42.654;23.360;2023-05-21T01:00:25;94276.03;;;15.60;95.53
6389;BME280;3227;42.654;23.360;2023-05-21T01:02:53;94271.84;;;15.55;96.19
6389;BME280;3227;42.654;23.360;2023-05-21T01:05:20;94237.34;;;15.20;96.30
6389;BME280;3227;42.654;23.360;2023-05-21T01:07:47;94283.97;;;15.50;96.81
6389;BME280;3227;42.654;23.360;2023-05-21T01:10:14;94269.41;;;15.47;96.78
6389;BME280;3227;42.654;23.360;2023-05-21T01:12:43;94274.59;;;15.47;96.98
6389;BME280;3227;42.654;23.360;2023-05-21T01:15:11;94248.13;;;15.38;97.12
6389;BME280;3227;42.654;23.360;2023-05-21T01:17:38;94261.56;;;15.52;97.12
6389;BME280;3227;42.654;23.360;2023-05-21T01:20:07;94267.53;;;15.55;97.25
6389;BME280;3227;42.654;23.360;2023-05-21T01:22:37;94253.00;;;15.50;97.38
6389;BME280;3227;42.654;23.360;2023-05-21T01:25:09;94265.81;;;15.56;97.27
6389;BME280;3227;42.654;23.360;2023-05-21T01:27:36;94271.81;;;15.56;97.58
6389;BME280;3227;42.654;23.360;2023-05-21T01:30:03;94264.13;;;15.53;97.76
6389;BME280;3227;42.654;23.360;2023-05-21T01:32:33;94260.66;;;15.56;97.86
6389;BME280;3227;42.654;23.360;2023-05-21T01:35:04;94258.13;;;15.51;98.10
6389;BME280;3227;42.654;23.360;2023-05-21T01:37:36;94258.97;;;15.52;98.27
6389;BME280;3227;42.654;23.360;2023-05-21T01:40:09;94249.53;;;15.51;98.49
6389;BME280;3227;42.654;23.360;2023-05-21T01:42:38;94229.19;;;15.37;98.25
6389;BME280;3227;42.654;23.360;2023-05-21T01:45:07;94260.69;;;15.53;98.33
6389;BME280;3227;42.654;23.360;2023-05-21T01:47:35;94256.38;;;15.55;98.03
6389;BME280;3227;42.654;23.360;2023-05-21T01:50:04;94255.50;;;15.54;98.14
6389;BME280;3227;42.654;23.360;2023-05-21T01:52:31;94267.63;;;15.49;98.45
6389;BME280;3227;42.654;23.360;2023-05-21T01:54:58;94251.56;;;15.38;98.05
6389;BME280;3227;42.654;23.360;2023-05-21T01:57:26;94251.44;;;15.43;98.06
6389;BME280;3227;42.654;23.360;2023-05-21T01:59:54;94249.72;;;15.42;98.35
6389;BME280;3227;42.654;23.360;2023-05-21T02:02:23;94236.16;;;15.34;98.04
6389;BME280;3227;42.654;23.360;2023-05-21T02:04:49;94247.19;;;15.40;98.86
6389;BME280;3227;42.654;23.360;2023-05-21T02:07:16;94244.50;;;15.45;98.99
6389;BME280;3227;42.654;23.360;2023-05-21T02:09:44;94247.06;;;15.46;98.95
6389;BME280;3227;42.654;23.360;2023-05-21T02:12:11;94246.22;;;15.46;99.66
6389;BME280;3227;42.654;23.360;2023-05-21T02:14:39;94247.13;;;15.43;99.55
6389;BME280;3227;42.654;23.360;2023-05-21T02:17:05;94247.34;;;15.34;98.72
6389;BME280;3227;42.654;23.360;2023-05-21T02:19:33;94246.66;;;15.26;99.28
6389;BME280;3227;42.654;23.360;2023-05-21T02:22:00;94247.63;;;15.22;99.05
6389;BME280;3227;42.654;23.360;2023-05-21T02:24:26;94246.88;;;15.15;99.87
6389;BME280;3227;42.654;23.360;2023-05-21T02:26:53;94217.22;;;14.96;100.00
6389;BME280;3227;42.654;23.360;2023-05-21T02:29:20;94234.22;;;15.06;100.00
6389;BME280;3227;42.654;23.360;2023-05-21T02:31:48;94240.16;;;15.08;100.00
6389;BME280;3227;42.654;23.360;2023-05-21T02:34:15;94239.41;;;15.05;100.00
6389;BME280;3227;42.654;23.360;2023-05-21T02:36:44;94240.16;;;15.08;100.00
6389;BME280;3227;42.654;23.360;2023-05-21T02:39:12;94234.06;;;15.12;99.90
6389;BME280;3227;42.654;23.360;2023-05-21T02:41:39;94237.59;;;15.08;100.00
6389;BME280;3227;42.654;23.360;2023-05-21T02:44:06;94236.84;;;15.03;100.00
6389;BME280;3227;42.654;23.360;2023-05-21T02:46:33;94233.44;;;15.01;100.00
6389;BME280;3227;42.654;23.360;2023-05-21T02:49:01;94234.25;;;15.05;100.00
6389;BME280;3227;42.654;23.360;2023-05-21T02:51:28;94229.00;;;15.08;99.97
6389;BME280;3227;42.654;23.360;2023-05-21T02:53:54;94229.00;;;15.08;100.00
6389;BME280;3227;42.654;23.360;2023-05-21T02:56:21;94193.50;;;14.80;100.00
6389;BME280;3227;42.654;23.360;2023-05-21T02:58:50;94225.56;;;15.07;100.00
6389;BME280;3227;42.654;23.360;2023-05-21T03:01:17;94228.16;;;15.07;100.00
6389;BME280;3227;42.654;23.360;2023-05-21T03:03:44;94223.94;;;15.03;100.00
6389;BME280;3227;42.654;23.360;2023-05-21T03:06:12;94225.72;;;15.00;100.00
6389;BME280;3227;42.654;23.360;2023-05-21T03:08:40;94235.19;;;15.01;100.00
6389;BME280;3227;42.654;23.360;2023-05-21T03:11:07;94224.88;;;14.99;100.00
6389;BME280;3227;42.654;23.360;2023-05-21T03:13:34;94235.16;;;15.02;100.00
6389;BME280;3227;42.654;23.360;2023-05-21T03:16:01;94235.13;;;15.04;100.00
6389;BME280;3227;42.654;23.360;2023-05-21T03:18:27;94228.06;;;15.12;100.00
6389;BME280;3227;42.654;23.360;2023-05-21T03:20:54;94241.72;;;15.15;100.00
6389;BME280;3227;42.654;23.360;2023-05-21T03:23:25;94222.06;;;15.10;100.00
6389;BME280;3227;42.654;23.360;2023-05-21T03:25:51;94233.97;;;15.15;100.00
6389;BME280;3227;42.654;23.360;2023-05-21T03:28:18;94245.06;;;15.20;100.00
6389;BME280;3227;42.654;23.360;2023-05-21T03:30:45;94247.56;;;15.23;99.80
6389;BME280;3227;42.654;23.360;2023-05-21T03:33:14;94242.38;;;15.25;99.65
6389;BME280;3227;42.654;23.360;2023-05-21T03:35:41;94221.88;;;15.19;99.50
6389;BME280;3227;42.654;23.360;2023-05-21T03:38:07;94059.88;;;14.19;99.38
6389;BME280;3227;42.654;23.360;2023-05-21T03:40:36;94239.75;;;15.27;99.66
6389;BME280;3227;42.654;23.360;2023-05-21T03:43:02;94245.69;;;15.32;99.46
6389;BME280;3227;42.654;23.360;2023-05-21T03:45:29;94247.28;;;15.37;99.61
6389;BME280;3227;42.654;23.360;2023-05-21T03:47:56;94241.25;;;15.37;99.44
6389;BME280;3227;42.654;23.360;2023-05-21T03:50:23;94244.56;;;15.42;99.46
6389;BME280;3227;42.654;23.360;2023-05-21T03:52:49;94247.97;;;15.44;99.30
6389;BME280;3227;42.654;23.360;2023-05-21T03:55:16;94249.72;;;15.42;99.32
6389;BME280;3227;42.654;23.360;2023-05-21T03:57:44;94244.50;;;15.45;99.28
6389;BME280;3227;42.654;23.360;2023-05-21T04:00:12;94235.00;;;15.47;99.29
6389;BME280;3227;42.654;23.360;2023-05-21T04:02:38;94238.34;;;15.50;99.53
6389;BME280;3227;42.654;23.360;2023-05-21T04:05:06;94239.16;;;15.54;99.48
6389;BME280;3227;42.654;23.360;2023-05-21T04:07:33;94211.88;;;15.41;99.58
6389;BME280;3227;42.654;23.360;2023-05-21T04:10:03;94238.09;;;15.63;98.95
6389;BME280;3227;42.654;23.360;2023-05-21T04:12:30;94235.56;;;15.61;99.50
6389;BME280;3227;42.654;23.360;2023-05-21T04:14:58;94237.25;;;15.62;99.36
6389;BME280;3227;42.654;23.360;2023-05-21T04:17:26;94244.97;;;15.64;98.95
6389;BME280;3227;42.654;23.360;2023-05-21T04:19:53;94211.53;;;15.57;99.04
6389;BME280;3227;42.654;23.360;2023-05-21T04:22:20;94238.72;;;15.72;98.98
6389;BME280;3227;42.654;23.360;2023-05-21T04:24:50;94251.75;;;15.68;99.69
6389;BME280;3227;42.654;23.360;2023-05-21T04:27:17;94245.56;;;15.36;100.00
6389;BME280;3227;42.654;23.360;2023-05-21T04:29:44;94242.34;;;15.27;100.00
6389;BME280;3227;42.654;23.360;2023-05-21T04:32:14;94230.09;;;15.36;100.00
6389;BME280;3227;42.654;23.360;2023-05-21T04:34:42;94232.47;;;15.44;100.00
6389;BME280;3227;42.654;23.360;2023-05-21T04:37:09;94242.75;;;15.47;100.00
6389;BME280;3227;42.654;23.360;2023-05-21T04:39:36;94229.75;;;15.50;100.00
6389;BME280;3227;42.654;23.360;2023-05-21T04:42:05;94236.47;;;15.58;100.00
6389;BME280;3227;42.654;23.360;2023-05-21T04:44:35;94243.13;;;15.67;100.00
6389;BME280;3227;42.654;23.360;2023-05-21T04:47:01;94244.59;;;15.79;100.00
6389;BME280;3227;42.654;23.360;2023-05-21T04:49:35;94214.44;;;15.79;99.76
6389;BME280;3227;42.654;23.360;2023-05-21T04:52:02;94241.06;;;16.15;98.76
6389;BME280;3227;42.654;23.360;2023-05-21T04:54:29;94246.56;;;16.35;97.44
6389;BME280;3227;42.654;23.360;2023-05-21T04:56:55;94253.22;;;16.44;96.30
6389;BME280;3227;42.654;23.360;2023-05-21T04:59:22;94248.69;;;16.52;96.02
6389;BME280;3227;42.654;23.360;2023-05-21T05:01:49;94240.78;;;16.57;95.83
6389;BME280;3227;42.654;23.360;2023-05-21T05:04:16;94243.28;;;16.63;95.52
6389;BME280;3227;42.654;23.360;2023-05-21T05:06:44;94240.41;;;16.72;95.50
6389;BME280;3227;42.654;23.360;2023-05-21T05:09:11;94190.03;;;16.54;94.33
6389;BME280;3227;42.654;23.360;2023-05-21T05:11:38;94234.69;;;16.90;93.92
6389;BME280;3227;42.654;23.360;2023-05-21T05:14:05;94250.38;;;16.86;93.24
6389;BME280;3227;42.654;23.360;2023-05-21T05:16:32;94240.88;;;16.86;93.31
6389;BME280;3227;42.654;23.360;2023-05-21T05:18:59;94242.50;;;16.89;92.66
6389;BME280;3227;42.654;23.360;2023-05-21T05:21:26;94243.75;;;16.76;93.13
6389;BME280;3227;42.654;23.360;2023-05-21T05:23:55;94246.16;;;16.82;92.72
6389;BME280;3227;42.654;23.360;2023-05-21T05:26:22;94238.19;;;16.89;88.49
6389;BME280;3227;42.654;23.360;2023-05-21T05:28:50;94238.13;;;16.91;88.65
6389;BME280;3227;42.654;23.360;2023-05-21T05:31:17;94247.53;;;16.95;91.14
6389;BME280;3227;42.654;23.360;2023-05-21T05:33:44;94252.13;;;17.13;87.59
6389;BME280;3227;42.654;23.360;2023-05-21T05:36:11;94237.13;;;17.24;85.92
6389;BME280;3227;42.654;23.360;2023-05-21T05:38:38;94244.47;;;17.38;85.37
6389;BME280;3227;42.654;23.360;2023-05-21T05:41:06;94248.66;;;17.43;83.21
6389;BME280;3227;42.654;23.360;2023-05-21T05:43:33;94245.84;;;17.49;81.49
6389;BME280;3227;42.654;23.360;2023-05-21T05:46:01;94249.78;;;17.63;82.29
6389;BME280;3227;42.654;23.360;2023-05-21T05:48:28;94246.47;;;17.58;84.10
6389;BME280;3227;42.654;23.360;2023-05-21T05:50:55;94246.00;;;17.73;83.51
6389;BME280;3227;42.654;23.360;2023-05-21T05:53:22;94251.41;;;17.93;82.09
6389;BME280;3227;42.654;23.360;2023-05-21T05:55:49;94228.53;;;18.04;79.44
6389;BME280;3227;42.654;23.360;2023-05-21T05:58:18;94249.31;;;18.29;77.91
6389;BME280;3227;42.654;23.360;2023-05-21T06:00:46;94247.72;;;18.50;78.43
6389;BME280;3227;42.654;23.360;2023-05-21T06:03:14;94252.66;;;18.82;78.33
6389;BME280;3227;42.654;23.360;2023-05-21T06:05:40;94248.50;;;19.02;72.01
6389;BME280;3227;42.654;23.360;2023-05-21T06:08:07;94251.97;;;19.24;71.32
6389;BME280;3227;42.654;23.360;2023-05-21T06:10:35;94232.19;;;19.43;71.05
6389;BME280;3227;42.654;23.360;2023-05-21T06:13:04;94235.22;;;19.98;70.08
6389;BME280;3227;42.654;23.360;2023-05-21T06:15:34;94195.81;;;20.27;63.05
6389;BME280;3227;42.654;23.360;2023-05-21T06:18:01;94244.97;;;20.94;62.67
6389;BME280;3227;42.654;23.360;2023-05-21T06:20:28;94252.34;;;21.23;60.04
6389;BME280;3227;42.654;23.360;2023-05-21T06:22:54;94245.72;;;21.35;56.66
6389;BME280;3227;42.654;23.360;2023-05-21T06:25:21;94249.38;;;21.69;56.29
6389;BME280;3227;42.654;23.360;2023-05-21T06:27:51;94240.03;;;22.00;54.11
6389;BME280;3227;42.654;23.360;2023-05-21T06:30:18;94243.66;;;22.15;52.32
6389;BME280;3227;42.654;23.360;2023-05-21T06:32:46;94242.00;;;21.95;54.27
6389;BME280;3227;42.654;23.360;2023-05-21T06:35:13;94246.69;;;21.70;55.13
6389;BME280;3227;42.654;23.360;2023-05-21T06:37:40;94245.97;;;21.67;53.92
6389;BME280;3227;42.654;23.360;2023-05-21T06:40:08;94237.97;;;21.52;55.79
6389;BME280;3227;42.654;23.360;2023-05-21T06:42:35;94243.19;;;21.34;56.25
6389;BME280;3227;42.654;23.360;2023-05-21T06:45:02;94228.63;;;21.30;56.64
6389;BME280;3227;42.654;23.360;2023-05-21T06:47:29;94215.34;;;21.34;56.63
6389;BME280;3227;42.654;23.360;2023-05-21T06:49:58;94217.56;;;21.24;56.17
6389;BME280;3227;42.654;23.360;2023-05-21T06:52:25;94227.53;;;21.34;56.64
6389;BME280;3227;42.654;23.360;2023-05-21T06:54:51;94224.66;;;21.21;56.48
6389;BME280;3227;42.654;23.360;2023-05-21T06:57:19;94226.00;;;21.30;56.20
6389;BME280;3227;42.654;23.360;2023-05-21T06:59:46;94228.00;;;21.24;55.01
6389;BME280;3227;42.654;23.360;2023-05-21T07:02:13;94223.06;;;20.79;55.42
6389;BME280;3227;42.654;23.360;2023-05-21T07:04:40;94225.38;;;20.67;57.77
6389;BME280;3227;42.654;23.360;2023-05-21T07:07:08;94220.38;;;20.81;57.13
6389;BME280;3227;42.654;23.360;2023-05-21T07:09:35;94218.41;;;20.86;57.30
6389;BME280;3227;42.654;23.360;2023-05-21T07:12:02;94225.06;;;21.12;57.85
6389;BME280;3227;42.654;23.360;2023-05-21T07:14:29;94224.31;;;21.29;55.76
6389;BME280;3227;42.654;23.360;2023-05-21T07:16:57;94223.75;;;21.22;54.69
6389;BME280;3227;42.654;23.360;2023-05-21T07:19:24;94222.91;;;21.40;54.90
6389;BME280;3227;42.654;23.360;2023-05-21T07:21:51;94215.47;;;21.69;54.88
6389;BME280;3227;42.654;23.360;2023-05-21T07:24:19;94242.53;;;21.66;53.15
6389;BME280;3227;42.654;23.360;2023-05-21T07:26:46;94234.75;;;21.29;54.33
6389;BME280;3227;42.654;23.360;2023-05-21T07:29:13;94228.50;;;21.12;53.94
6389;BME280;3227;42.654;23.360;2023-05-21T07:31:40;94223.78;;;20.63;56.55
6389;BME280;3227;42.654;23.360;2023-05-21T07:34:07;94216.91;;;20.62;57.45
6389;BME280;3227;42.654;23.360;2023-05-21T07:36:34;94229.41;;;20.54;56.44
6389;BME280;3227;42.654;23.360;2023-05-21T07:39:01;94241.22;;;20.61;57.66
6389;BME280;3227;42.654;23.360;2023-05-21T07:41:29;94212.53;;;20.62;56.50
6389;BME280;3227;42.654;23.360;2023-05-21T07:43:57;94220.75;;;20.92;55.88
6389;BME280;3227;42.654;23.360;2023-05-21T07:46:26;94198.81;;;20.98;55.66
6389;BME280;3227;42.654;23.360;2023-05-21T07:48:52;94219.09;;;21.47;55.07
6389;BME280;3227;42.654;23.360;2023-05-21T07:51:19;94232.81;;;21.51;53.45
6389;BME280;3227;42.654;23.360;2023-05-21T07:53:46;94225.53;;;21.76;52.99
6389;BME280;3227;42.654;23.360;2023-05-21T07:56:13;94216.66;;;21.80;52.69
6389;BME280;3227;42.654;23.360;2023-05-21T07:58:41;94180.28;;;21.77;51.21
6389;BME280;3227;42.654;23.360;2023-05-21T08:01:10;94217.72;;;22.12;50.86
6389;BME280;3227;42.654;23.360;2023-05-21T08:03:37;94227.59;;;21.70;49.23
6389;BME280;3227;42.654;23.360;2023-05-21T08:06:04;94230.94;;;21.36;48.81
6389;BME280;3227;42.654;23.360;2023-05-21T08:08:31;94225.53;;;21.40;45.59
6389;BME280;3227;42.654;23.360;2023-05-21T08:11:00;94242.63;;;21.27;45.27
6389;BME280;3227;42.654;23.360;2023-05-21T08:13:27;94216.69;;;21.05;45.24
6389;BME280;3227;42.654;23.360;2023-05-21T08:15:55;94228.25;;;21.18;45.60
6389;BME280;3227;42.654;23.360;2023-05-21T08:18:22;94195.31;;;20.78;45.50
6389;BME280;3227;42.654;23.360;2023-05-21T08:20:49;94229.50;;;20.71;45.81
6389;BME280;3227;42.654;23.360;2023-05-21T08:23:16;94231.94;;;20.35;46.68
6389;BME280;3227;42.654;23.360;2023-05-21T08:25:43;94214.91;;;20.48;48.28
6389;BME280;3227;42.654;23.360;2023-05-21T08:28:10;94230.97;;;20.58;47.07
6389;BME280;3227;42.654;23.360;2023-05-21T08:30:38;94212.41;;;20.45;46.17
6389;BME280;3227;42.654;23.360;2023-05-21T08:33:07;94205.34;;;20.48;46.64
6389;BME280;3227;42.654;23.360;2023-05-21T08:35:36;94216.38;;;20.54;46.76
6389;BME280;3227;42.654;23.360;2023-05-21T08:38:03;94218.31;;;20.69;47.32
6389;BME280;3227;42.654;23.360;2023-05-21T08:40:30;94224.00;;;20.38;47.13
6389;BME280;3227;42.654;23.360;2023-05-21T08:42:57;94225.81;;;20.56;47.01
6389;BME280;3227;42.654;23.360;2023-05-21T08:45:25;94236.03;;;20.61;47.45
6389;BME280;3227;42.654;23.360;2023-05-21T08:47:54;94231.72;;;20.60;46.99
6389;BME280;3227;42.654;23.360;2023-05-21T08:50:25;94232.13;;;20.71;46.40
6389;BME280;3227;42.654;23.360;2023-05-21T08:52:53;94238.09;;;20.73;45.60
6389;BME280;3227;42.654;23.360;2023-05-21T08:55:20;94213.63;;;20.77;47.00
6389;BME280;3227;42.654;23.360;2023-05-21T08:57:47;94216.94;;;20.80;46.67
6389;BME280;3227;42.654;23.360;2023-05-21T09:00:15;94228.50;;;20.55;46.38
6389;BME280;3227;42.654;23.360;2023-05-21T09:02:42;94218.91;;;20.14;48.39
6389;BME280;3227;42.654;23.360;2023-05-21T09:05:11;94220.06;;;20.28;48.20
6389;BME280;3227;42.654;23.360;2023-05-21T09:07:42;94224.19;;;20.54;48.15
6389;BME280;3227;42.654;23.360;2023-05-21T09:10:21;94219.91;;;20.52;48.06
6389;BME280;3227;42.654;23.360;2023-05-21T09:12:50;94237.19;;;20.74;48.64
6389;BME280;3227;42.654;23.360;2023-05-21T09:15:17;94208.75;;;20.69;47.50
6389;BME280;3227;42.654;23.360;2023-05-21T09:17:46;94228.94;;;21.03;48.40
6389;BME280;3227;42.654;23.360;2023-05-21T09:20:14;94218.06;;;21.33;46.53
6389;BME280;3227;42.654;23.360;2023-05-21T09:22:46;94228.50;;;21.69;44.06
6389;BME280;3227;42.654;23.360;2023-05-21T09:25:15;94237.66;;;21.58;42.17
6389;BME280;3227;42.654;23.360;2023-05-21T09:27:45;94229.81;;;21.41;42.95
6389;BME280;3227;42.654;23.360;2023-05-21T09:30:13;94222.97;;;21.57;42.17
6389;BME280;3227;42.654;23.360;2023-05-21T09:32:42;94230.31;;;21.85;41.09
6389;BME280;3227;42.654;23.360;2023-05-21T09:35:11;94233.09;;;21.99;39.17
6389;BME280;3227;42.654;23.360;2023-05-21T09:37:39;94242.44;;;21.86;39.44
6389;BME280;3227;42.654;23.360;2023-05-21T09:40:18;94225.09;;;21.85;40.44
6389;BME280;3227;42.654;23.360;2023-05-21T09:42:46;94218.66;;;21.92;41.11
6389;BME280;3227;42.654;23.360;2023-05-21T09:45:16;94185.13;;;21.85;40.11
6389;BME280;3227;42.654;23.360;2023-05-21T09:47:45;94228.06;;;22.14;40.20
6389;BME280;3227;42.654;23.360;2023-05-21T09:50:12;94144.59;;;21.78;39.81
6389;BME280;3227;42.654;23.360;2023-05-21T09:52:43;94207.28;;;22.12;39.33
6389;BME280;3227;42.654;23.360;2023-05-21T09:55:11;94226.22;;;21.98;38.75
6389;BME280;3227;42.654;23.360;2023-05-21T09:57:52;94202.84;;;21.95;38.13
6389;BME280;3227;42.654;23.360;2023-05-21T10:00:20;94212.94;;;22.03;38.48
6389;BME280;3227;42.654;23.360;2023-05-21T10:02:48;94197.16;;;22.06;38.69
6389;BME280;3227;42.654;23.360;2023-05-21T10:05:16;94181.38;;;22.08;37.21
6389;BME280;3227;42.654;23.360;2023-05-21T10:07:48;94212.81;;;22.06;38.21
6389;BME280;3227;42.654;23.360;2023-05-21T10:10:18;94214.09;;;21.97;37.94
6389;BME280;3227;42.654;23.360;2023-05-21T10:12:54;94207.00;;;21.99;38.09
6389;BME280;3227;42.654;23.360;2023-05-21T10:15:23;94183.00;;;22.10;37.30
6389;BME280;3227;42.654;23.360;2023-05-21T10:17:51;94187.38;;;22.44;37.31
6389;BME280;3227;42.654;23.360;2023-05-21T10:20:18;94201.78;;;22.68;36.78
6389;BME280;3227;42.654;23.360;2023-05-21T10:22:46;94181.22;;;22.62;37.13
6389;BME280;3227;42.654;23.360;2023-05-21T10:25:14;94186.56;;;22.59;36.67
6389;BME280;3227;42.654;23.360;2023-05-21T10:27:42;94189.59;;;22.52;36.92
6389;BME280;3227;42.654;23.360;2023-05-21T10:30:11;94197.66;;;22.47;38.67
6389;BME280;3227;42.654;23.360;2023-05-21T10:32:39;94187.97;;;22.32;38.29
6389;BME280;3227;42.654;23.360;2023-05-21T10:35:08;94178.63;;;22.11;38.82
6389;BME280;3227;42.654;23.360;2023-05-21T10:37:35;94137.50;;;21.81;39.23
6389;BME280;3227;42.654;23.360;2023-05-21T10:40:02;94141.16;;;21.77;38.90
6389;BME280;3227;42.654;23.360;2023-05-21T10:45:54;94184.16;;;22.22;40.41
6389;BME280;3227;42.654;23.360;2023-05-21T10:48:41;94182.03;;;22.13;39.45
6389;BME280;3227;42.654;23.360;2023-05-21T10:51:18;94171.59;;;22.13;40.56
6389;BME280;3227;42.654;23.360;2023-05-21T10:54:02;94196.31;;;22.06;40.06
6389;BME280;3227;42.654;23.360;2023-05-21T10:56:38;94191.66;;;21.93;40.53
6389;BME280;3227;42.654;23.360;2023-05-21T10:59:14;94185.16;;;21.66;41.26
6389;BME280;3227;42.654;23.360;2023-05-21T11:01:48;94165.78;;;21.36;41.54
6389;BME280;3227;42.654;23.360;2023-05-21T11:04:21;94153.25;;;21.25;42.44
6389;BME280;3227;42.654;23.360;2023-05-21T11:06:48;94152.97;;;21.12;43.31
6389;BME280;3227;42.654;23.360;2023-05-21T11:09:15;94170.03;;;21.19;43.41
6389;BME280;3227;42.654;23.360;2023-05-21T11:11:44;94180.50;;;21.37;43.15
6389;BME280;3227;42.654;23.360;2023-05-21T11:14:32;94174.31;;;21.39;42.43
6389;BME280;3227;42.654;23.360;2023-05-21T11:17:10;94170.41;;;21.48;42.75
6389;BME280;3227;42.654;23.360;2023-05-21T11:19:39;94173.56;;;21.54;42.78
6389;BME280;3227;42.654;23.360;2023-05-21T11:22:20;94164.28;;;21.66;41.91
6389;BME280;3227;42.654;23.360;2023-05-21T11:24:47;94167.47;;;21.73;42.25
6389;BME280;3227;42.654;23.360;2023-05-21T11:27:29;94163.31;;;21.69;41.97
6389;BME280;3227;42.654;23.360;2023-05-21T11:29:56;94156.78;;;21.60;42.70
6389;BME280;3227;42.654;23.360;2023-05-21T11:32:24;94157.94;;;21.54;41.88
6389;BME280;3227;42.654;23.360;2023-05-21T11:34:51;94164.88;;;21.37;42.61
6389;BME280;3227;42.654;23.360;2023-05-21T11:37:22;94159.53;;;21.21;42.67
6389;BME280;3227;42.654;23.360;2023-05-21T11:39:52;94151.91;;;21.16;42.27
6389;BME280;3227;42.654;23.360;2023-05-21T11:42:30;94141.91;;;21.07;43.02
6389;BME280;3227;42.654;23.360;2023-05-21T11:44:58;94157.00;;;21.19;43.09
6389;BME280;3227;42.654;23.360;2023-05-21T11:47:28;94152.19;;;21.10;43.21
6389;BME280;3227;42.654;23.360;2023-05-21T11:49:56;94152.47;;;21.04;43.86
6389;BME280;3227;42.654;23.360;2023-05-21T11:52:23;94102.84;;;20.70;44.10
6389;BME280;3227;42.654;23.360;2023-05-21T11:54:52;94149.09;;;20.83;44.54
6389;BME280;3227;42.654;23.360;2023-05-21T11:57:25;94145.56;;;20.66;44.54
6389;BME280;3227;42.654;23.360;2023-05-21T11:59:55;94145.47;;;20.48;44.82
6389;BME280;3227;42.654;23.360;2023-05-21T12:02:25;94143.22;;;20.41;45.69
6389;BME280;3227;42.654;23.360;2023-05-21T12:04:54;94143.34;;;20.38;46.28
6389;BME280;3227;42.654;23.360;2023-05-21T12:07:26;94147.09;;;20.31;46.86
6389;BME280;3227;42.654;23.360;2023-05-21T12:09:59;94080.19;;;19.94;46.58
6389;BME280;3227;42.654;23.360;2023-05-21T12:12:26;94133.50;;;20.24;47.25
6389;BME280;3227;42.654;23.360;2023-05-21T12:14:54;94072.28;;;19.76;47.89
6389;BME280;3227;42.654;23.360;2023-05-21T12:17:22;94134.03;;;20.12;49.07
6389;BME280;3227;42.654;23.360;2023-05-21T12:19:51;94144.31;;;20.15;49.61
6389;BME280;3227;42.654;23.360;2023-05-21T12:22:20;94133.00;;;20.16;49.96
6389;BME280;3227;42.654;23.360;2023-05-21T12:24:47;94135.06;;;20.28;49.33
6389;BME280;3227;42.654;23.360;2023-05-21T12:27:14;94132.38;;;20.30;50.08
6389;BME280;3227;42.654;23.360;2023-05-21T12:29:43;94035.28;;;19.51;52.06
6389;BME280;3227;42.654;23.360;2023-05-21T12:32:13;94130.06;;;20.03;52.88
6389;BME280;3227;42.654;23.360;2023-05-21T12:34:41;94124.28;;;19.97;52.12
6389;BME280;3227;42.654;23.360;2023-05-21T12:37:11;94126.63;;;20.03;52.16
6389;BME280;3227;42.654;23.360;2023-05-21T12:39:44;94120.38;;;20.07;51.93
6389;BME280;3227;42.654;23.360;2023-05-21T12:42:11;94125.31;;;20.13;52.15
6389;BME280;3227;42.654;23.360;2023-05-21T12:44:38;94115.03;;;20.10;52.35
6389;BME280;3227;42.654;23.360;2023-05-21T12:47:06;94116.66;;;20.12;52.60
6389;BME280;3227;42.654;23.360;2023-05-21T12:49:34;94121.69;;;20.17;52.73
6389;BME280;3227;42.654;23.360;2023-05-21T12:52:07;94119.72;;;20.22;52.11
6389;BME280;3227;42.654;23.360;2023-05-21T12:54:35;94112.53;;;20.27;51.98
6389;BME280;3227;42.654;23.360;2023-05-21T12:57:07;94119.38;;;20.30;50.62
6389;BME280;3227;42.654;23.360;2023-05-21T12:59:48;94109.75;;;20.32;51.65
6389;BME280;3227;42.654;23.360;2023-05-21T13:02:18;94112.91;;;20.40;51.22
6389;BME280;3227;42.654;23.360;2023-05-21T13:04:46;94115.28;;;20.44;50.47
6389;BME280;3227;42.654;23.360;2023-05-21T13:07:14;94059.25;;;20.17;50.89
6389;BME280;3227;42.654;23.360;2023-05-21T13:09:41;94108.81;;;20.53;50.55
6389;BME280;3227;42.654;23.360;2023-05-21T13:12:10;94113.41;;;20.67;50.86
6389;BME280;3227;42.654;23.360;2023-05-21T13:14:37;94108.84;;;20.72;49.29
6389;BME280;3227;42.654;23.360;2023-05-21T13:17:04;94107.00;;;20.74;49.36
6389;BME280;3227;42.654;23.360;2023-05-21T13:19:31;94110.88;;;20.84;49.94